sensor_id;sensor_type;location;lat;lon;timestamp;P1;durP1;ratioP1;P2;durP2;ratioP2
68680;SDS011;55836;49.858;6.756;2024-03-08T00:02:22;18.90;;;10.27;;
68680;SDS011;55836;49.858;6.756;2024-03-08T00:04:49;16.70;;;9.23;;
68680;SDS011;55836;49.858;6.756;2024-03-08T00:07:15;13.90;;;8.07;;
68680;SDS011;55836;49.858;6.756;2024-03-08T00:09:41;16.07;;;8.37;;
68680;SDS011;55836;49.858;6.756;2024-03-08T00:12:07;15.13;;;8.93;;
68680;SDS011;55836;49.858;6.756;2024-03-08T00:14:33;15.00;;;8.10;;
68680;SDS011;55836;49.858;6.756;2024-03-08T00:17:00;14.97;;;8.23;;
68680;SDS011;55836;49.858;6.756;2024-03-08T00:19:26;14.67;;;8.50;;
68680;SDS011;55836;49.858;6.756;2024-03-08T00:21:52;13.90;;;8.43;;
68680;SDS011;55836;49.858;6.756;2024-03-08T00:24:18;18.93;;;8.93;;
68680;SDS011;55836;49.858;6.756;2024-03-08T00:26:49;13.90;;;8.67;;
68680;SDS011;55836;49.858;6.756;2024-03-08T00:29:15;16.30;;;8.70;;
68680;SDS011;55836;49.858;6.756;2024-03-08T00:31:41;15.30;;;8.90;;
68680;SDS011;55836;49.858;6.756;2024-03-08T00:34:07;14.83;;;8.73;;
68680;SDS011;55836;49.858;6.756;2024-03-08T00:36:36;15.43;;;8.47;;
68680;SDS011;55836;49.858;6.756;2024-03-08T00:39:02;15.90;;;8.20;;
68680;SDS011;55836;49.858;6.756;2024-03-08T00:41:31;12.37;;;7.57;;
68680;SDS011;55836;49.858;6.756;2024-03-08T00:43:57;17.47;;;8.37;;
68680;SDS011;55836;49.858;6.756;2024-03-08T00:46:23;13.23;;;8.17;;
68680;SDS011;55836;49.858;6.756;2024-03-08T00:48:49;14.97;;;9.43;;
68680;SDS011;55836;49.858;6.756;2024-03-08T00:51:15;15.07;;;8.77;;
68680;SDS011;55836;49.858;6.756;2024-03-08T00:53:41;17.33;;;8.90;;
68680;SDS011;55836;49.858;6.756;2024-03-08T00:56:08;14.30;;;7.97;;
68680;SDS011;55836;49.858;6.756;2024-03-08T00:58:37;16.90;;;8.23;;
68680;SDS011;55836;49.858;6.756;2024-03-08T01:01:03;14.90;;;9.83;;
68680;SDS011;55836;49.858;6.756;2024-03-08T01:03:30;12.53;;;8.77;;
68680;SDS011;55836;49.858;6.756;2024-03-08T01:05:59;15.03;;;8.53;;
68680;SDS011;55836;49.858;6.756;2024-03-08T01:08:29;14.67;;;7.83;;
68680;SDS011;55836;49.858;6.756;2024-03-08T01:10:55;16.47;;;9.37;;
68680;SDS011;55836;49.858;6.756;2024-03-08T01:13:21;17.13;;;8.83;;
68680;SDS011;55836;49.858;6.756;2024-03-08T01:15:47;15.37;;;8.87;;
68680;SDS011;55836;49.858;6.756;2024-03-08T01:18:13;19.50;;;10.07;;
68680;SDS011;55836;49.858;6.756;2024-03-08T01:20:39;13.57;;;8.30;;
68680;SDS011;55836;49.858;6.756;2024-03-08T01:23:06;16.37;;;9.27;;
68680;SDS011;55836;49.858;6.756;2024-03-08T01:25:32;20.57;;;11.07;;
68680;SDS011;55836;49.858;6.756;2024-03-08T01:27:58;15.03;;;8.13;;
68680;SDS011;55836;49.858;6.756;2024-03-08T01:30:24;15.73;;;9.53;;
68680;SDS011;55836;49.858;6.756;2024-03-08T01:32:50;17.93;;;9.53;;
68680;SDS011;55836;49.858;6.756;2024-03-08T01:35:16;20.53;;;10.10;;
68680;SDS011;55836;49.858;6.756;2024-03-08T01:37:43;18.80;;;10.47;;
68680;SDS011;55836;49.858;6.756;2024-03-08T01:40:09;17.70;;;10.23;;
68680;SDS011;55836;49.858;6.756;2024-03-08T01:42:35;20.33;;;9.70;;
68680;SDS011;55836;49.858;6.756;2024-03-08T01:45:03;16.93;;;8.50;;
68680;SDS011;55836;49.858;6.756;2024-03-08T01:47:29;15.60;;;8.97;;
68680;SDS011;55836;49.858;6.756;2024-03-08T01:49:58;16.97;;;8.90;;
68680;SDS011;55836;49.858;6.756;2024-03-08T01:52:26;14.77;;;9.37;;
68680;SDS011;55836;49.858;6.756;2024-03-08T01:54:52;17.47;;;9.10;;
68680;SDS011;55836;49.858;6.756;2024-03-08T01:57:18;19.67;;;9.87;;
68680;SDS011;55836;49.858;6.756;2024-03-08T01:59:44;22.63;;;10.90;;
68680;SDS011;55836;49.858;6.756;2024-03-08T02:02:10;16.47;;;9.30;;
68680;SDS011;55836;49.858;6.756;2024-03-08T02:04:38;22.27;;;10.80;;
68680;SDS011;55836;49.858;6.756;2024-03-08T02:07:04;20.23;;;10.93;;
68680;SDS011;55836;49.858;6.756;2024-03-08T02:09:30;20.47;;;10.80;;
68680;SDS011;55836;49.858;6.756;2024-03-08T02:11:57;16.80;;;9.77;;
68680;SDS011;55836;49.858;6.756;2024-03-08T02:14:23;19.37;;;10.17;;
68680;SDS011;55836;49.858;6.756;2024-03-08T02:16:49;16.27;;;9.80;;
68680;SDS011;55836;49.858;6.756;2024-03-08T02:19:17;19.33;;;11.57;;
68680;SDS011;55836;49.858;6.756;2024-03-08T02:21:45;19.80;;;10.87;;
68680;SDS011;55836;49.858;6.756;2024-03-08T02:24:12;17.07;;;9.13;;
68680;SDS011;55836;49.858;6.756;2024-03-08T02:26:38;18.07;;;10.67;;
68680;SDS011;55836;49.858;6.756;2024-03-08T02:29:04;20.90;;;11.70;;
68680;SDS011;55836;49.858;6.756;2024-03-08T02:31:30;19.00;;;11.53;;
68680;SDS011;55836;49.858;6.756;2024-03-08T02:33:56;22.20;;;11.97;;
68680;SDS011;55836;49.858;6.756;2024-03-08T02:36:22;20.57;;;10.73;;
68680;SDS011;55836;49.858;6.756;2024-03-08T02:38:48;19.67;;;11.43;;
68680;SDS011;55836;49.858;6.756;2024-03-08T02:41:14;21.60;;;10.47;;
68680;SDS011;55836;49.858;6.756;2024-03-08T02:43:40;21.83;;;10.17;;
68680;SDS011;55836;49.858;6.756;2024-03-08T02:46:06;16.47;;;9.90;;
68680;SDS011;55836;49.858;6.756;2024-03-08T02:48:32;20.07;;;11.03;;
68680;SDS011;55836;49.858;6.756;2024-03-08T02:50:58;17.57;;;10.60;;
68680;SDS011;55836;49.858;6.756;2024-03-08T02:53:24;19.23;;;11.10;;
68680;SDS011;55836;49.858;6.756;2024-03-08T02:55:50;21.23;;;12.07;;
68680;SDS011;55836;49.858;6.756;2024-03-08T02:58:16;22.20;;;10.70;;
68680;SDS011;55836;49.858;6.756;2024-03-08T03:00:43;16.07;;;10.27;;
68680;SDS011;55836;49.858;6.756;2024-03-08T03:03:09;21.13;;;11.33;;
68680;SDS011;55836;49.858;6.756;2024-03-08T03:05:35;21.53;;;11.70;;
68680;SDS011;55836;49.858;6.756;2024-03-08T03:08:01;21.57;;;11.70;;
68680;SDS011;55836;49.858;6.756;2024-03-08T03:10:29;19.87;;;11.00;;
68680;SDS011;55836;49.858;6.756;2024-03-08T03:12:55;22.10;;;12.07;;
68680;SDS011;55836;49.858;6.756;2024-03-08T03:15:21;27.50;;;12.43;;
68680;SDS011;55836;49.858;6.756;2024-03-08T03:17:48;21.23;;;11.27;;
68680;SDS011;55836;49.858;6.756;2024-03-08T03:20:15;18.37;;;11.03;;
68680;SDS011;55836;49.858;6.756;2024-03-08T03:22:47;22.23;;;10.93;;
68680;SDS011;55836;49.858;6.756;2024-03-08T03:25:16;19.57;;;11.80;;
68680;SDS011;55836;49.858;6.756;2024-03-08T03:27:48;21.80;;;11.47;;
68680;SDS011;55836;49.858;6.756;2024-03-08T03:30:14;19.70;;;11.67;;
68680;SDS011;55836;49.858;6.756;2024-03-08T03:32:49;20.57;;;12.27;;
68680;SDS011;55836;49.858;6.756;2024-03-08T03:35:16;28.23;;;12.37;;
68680;SDS011;55836;49.858;6.756;2024-03-08T03:37:42;21.63;;;12.37;;
68680;SDS011;55836;49.858;6.756;2024-03-08T03:40:16;23.47;;;11.87;;
68680;SDS011;55836;49.858;6.756;2024-03-08T03:42:44;20.23;;;11.83;;
68680;SDS011;55836;49.858;6.756;2024-03-08T03:45:10;22.07;;;11.30;;
68680;SDS011;55836;49.858;6.756;2024-03-08T03:47:36;23.40;;;12.00;;
68680;SDS011;55836;49.858;6.756;2024-03-08T03:50:03;20.60;;;11.17;;
68680;SDS011;55836;49.858;6.756;2024-03-08T03:52:30;19.97;;;12.03;;
68680;SDS011;55836;49.858;6.756;2024-03-08T03:54:58;22.03;;;11.93;;
68680;SDS011;55836;49.858;6.756;2024-03-08T03:57:24;26.77;;;12.43;;
68680;SDS011;55836;49.858;6.756;2024-03-08T03:59:50;22.63;;;12.97;;
68680;SDS011;55836;49.858;6.756;2024-03-08T04:02:17;21.53;;;12.67;;
68680;SDS011;55836;49.858;6.756;2024-03-08T04:04:45;25.03;;;11.47;;
68680;SDS011;55836;49.858;6.756;2024-03-08T04:07:11;24.20;;;13.33;;
68680;SDS011;55836;49.858;6.756;2024-03-08T04:09:37;19.47;;;12.43;;
68680;SDS011;55836;49.858;6.756;2024-03-08T04:12:03;23.27;;;13.27;;
68680;SDS011;55836;49.858;6.756;2024-03-08T04:14:29;20.57;;;12.67;;
68680;SDS011;55836;49.858;6.756;2024-03-08T04:16:55;24.20;;;12.23;;
68680;SDS011;55836;49.858;6.756;2024-03-08T04:19:21;23.87;;;12.67;;
68680;SDS011;55836;49.858;6.756;2024-03-08T04:21:47;21.87;;;12.13;;
68680;SDS011;55836;49.858;6.756;2024-03-08T04:24:13;23.60;;;12.50;;
68680;SDS011;55836;49.858;6.756;2024-03-08T04:26:40;21.53;;;11.87;;
68680;SDS011;55836;49.858;6.756;2024-03-08T04:29:06;23.03;;;12.23;;
68680;SDS011;55836;49.858;6.756;2024-03-08T04:31:32;21.93;;;12.70;;
68680;SDS011;55836;49.858;6.756;2024-03-08T04:33:58;23.10;;;12.40;;
68680;SDS011;55836;49.858;6.756;2024-03-08T04:36:24;19.83;;;12.03;;
68680;SDS011;55836;49.858;6.756;2024-03-08T04:38:50;20.70;;;12.03;;
68680;SDS011;55836;49.858;6.756;2024-03-08T04:41:16;23.00;;;12.87;;
68680;SDS011;55836;49.858;6.756;2024-03-08T04:43:43;25.73;;;12.67;;
68680;SDS011;55836;49.858;6.756;2024-03-08T04:46:09;22.03;;;12.10;;
68680;SDS011;55836;49.858;6.756;2024-03-08T04:48:35;24.70;;;12.33;;
68680;SDS011;55836;49.858;6.756;2024-03-08T04:51:02;21.63;;;11.70;;
68680;SDS011;55836;49.858;6.756;2024-03-08T04:53:28;19.27;;;12.57;;
68680;SDS011;55836;49.858;6.756;2024-03-08T04:55:55;22.33;;;12.47;;
68680;SDS011;55836;49.858;6.756;2024-03-08T04:58:23;22.70;;;13.20;;
68680;SDS011;55836;49.858;6.756;2024-03-08T05:00:48;24.10;;;12.10;;
68680;SDS011;55836;49.858;6.756;2024-03-08T05:03:15;23.80;;;12.10;;
68680;SDS011;55836;49.858;6.756;2024-03-08T05:05:41;23.50;;;12.63;;
68680;SDS011;55836;49.858;6.756;2024-03-08T05:08:07;22.03;;;13.93;;
68680;SDS011;55836;49.858;6.756;2024-03-08T05:10:33;21.43;;;11.33;;
68680;SDS011;55836;49.858;6.756;2024-03-08T05:12:59;27.37;;;12.63;;
68680;SDS011;55836;49.858;6.756;2024-03-08T05:15:25;18.80;;;11.67;;
68680;SDS011;55836;49.858;6.756;2024-03-08T05:17:51;23.47;;;12.60;;
68680;SDS011;55836;49.858;6.756;2024-03-08T05:20:17;23.00;;;13.03;;
68680;SDS011;55836;49.858;6.756;2024-03-08T05:22:44;25.30;;;12.77;;
68680;SDS011;55836;49.858;6.756;2024-03-08T05:25:11;21.73;;;11.60;;
68680;SDS011;55836;49.858;6.756;2024-03-08T05:27:39;24.77;;;14.70;;
68680;SDS011;55836;49.858;6.756;2024-03-08T05:30:05;24.50;;;12.90;;
68680;SDS011;55836;49.858;6.756;2024-03-08T05:32:31;20.30;;;11.63;;
68680;SDS011;55836;49.858;6.756;2024-03-08T05:34:57;27.90;;;14.13;;
68680;SDS011;55836;49.858;6.756;2024-03-08T05:37:23;23.33;;;12.23;;
68680;SDS011;55836;49.858;6.756;2024-03-08T05:39:49;26.30;;;12.20;;
68680;SDS011;55836;49.858;6.756;2024-03-08T05:42:15;27.63;;;12.83;;
68680;SDS011;55836;49.858;6.756;2024-03-08T05:44:41;23.23;;;13.07;;
68680;SDS011;55836;49.858;6.756;2024-03-08T05:47:08;24.03;;;13.63;;
68680;SDS011;55836;49.858;6.756;2024-03-08T05:49:35;17.47;;;11.10;;
68680;SDS011;55836;49.858;6.756;2024-03-08T05:52:01;22.63;;;11.83;;
68680;SDS011;55836;49.858;6.756;2024-03-08T05:54:28;24.10;;;12.67;;
68680;SDS011;55836;49.858;6.756;2024-03-08T05:56:54;22.97;;;12.97;;
68680;SDS011;55836;49.858;6.756;2024-03-08T05:59:20;20.40;;;11.63;;
68680;SDS011;55836;49.858;6.756;2024-03-08T06:01:48;21.80;;;11.60;;
68680;SDS011;55836;49.858;6.756;2024-03-08T06:04:14;23.97;;;12.90;;
68680;SDS011;55836;49.858;6.756;2024-03-08T06:06:40;22.07;;;13.73;;
68680;SDS011;55836;49.858;6.756;2024-03-08T06:09:06;25.97;;;12.90;;
68680;SDS011;55836;49.858;6.756;2024-03-08T06:11:34;23.83;;;13.20;;
68680;SDS011;55836;49.858;6.756;2024-03-08T06:14:00;26.50;;;13.03;;
68680;SDS011;55836;49.858;6.756;2024-03-08T06:16:26;22.93;;;11.60;;
68680;SDS011;55836;49.858;6.756;2024-03-08T06:18:56;21.77;;;11.17;;
68680;SDS011;55836;49.858;6.756;2024-03-08T06:21:22;24.90;;;12.67;;
68680;SDS011;55836;49.858;6.756;2024-03-08T06:23:51;22.37;;;13.13;;
68680;SDS011;55836;49.858;6.756;2024-03-08T06:26:16;22.00;;;12.20;;
68680;SDS011;55836;49.858;6.756;2024-03-08T06:28:43;24.23;;;11.93;;
68680;SDS011;55836;49.858;6.756;2024-03-08T06:31:09;21.03;;;11.83;;
68680;SDS011;55836;49.858;6.756;2024-03-08T06:33:36;21.70;;;12.23;;
68680;SDS011;55836;49.858;6.756;2024-03-08T06:36:02;19.60;;;11.27;;
68680;SDS011;55836;49.858;6.756;2024-03-08T06:38:28;22.73;;;13.00;;
68680;SDS011;55836;49.858;6.756;2024-03-08T06:40:55;18.57;;;11.37;;
68680;SDS011;55836;49.858;6.756;2024-03-08T06:43:21;18.70;;;10.30;;
68680;SDS011;55836;49.858;6.756;2024-03-08T06:45:50;23.37;;;12.30;;
68680;SDS011;55836;49.858;6.756;2024-03-08T06:48:16;30.53;;;11.63;;
68680;SDS011;55836;49.858;6.756;2024-03-08T06:50:45;20.93;;;10.77;;
68680;SDS011;55836;49.858;6.756;2024-03-08T06:53:11;24.87;;;12.90;;
68680;SDS011;55836;49.858;6.756;2024-03-08T06:55:38;18.97;;;11.03;;
68680;SDS011;55836;49.858;6.756;2024-03-08T06:58:04;23.33;;;12.53;;
68680;SDS011;55836;49.858;6.756;2024-03-08T07:00:31;28.60;;;13.50;;
68680;SDS011;55836;49.858;6.756;2024-03-08T07:02:57;20.83;;;12.20;;
68680;SDS011;55836;49.858;6.756;2024-03-08T07:05:27;21.43;;;11.83;;
68680;SDS011;55836;49.858;6.756;2024-03-08T07:07:53;20.73;;;12.03;;
68680;SDS011;55836;49.858;6.756;2024-03-08T07:10:20;20.63;;;10.70;;
68680;SDS011;55836;49.858;6.756;2024-03-08T07:12:48;22.63;;;11.80;;
68680;SDS011;55836;49.858;6.756;2024-03-08T07:15:14;19.53;;;10.73;;
68680;SDS011;55836;49.858;6.756;2024-03-08T07:17:41;20.77;;;12.33;;
68680;SDS011;55836;49.858;6.756;2024-03-08T07:20:09;21.83;;;12.10;;
68680;SDS011;55836;49.858;6.756;2024-03-08T07:22:37;21.93;;;12.10;;
68680;SDS011;55836;49.858;6.756;2024-03-08T07:25:06;24.57;;;11.90;;
68680;SDS011;55836;49.858;6.756;2024-03-08T07:27:33;22.33;;;11.57;;
68680;SDS011;55836;49.858;6.756;2024-03-08T07:30:02;23.77;;;12.33;;
68680;SDS011;55836;49.858;6.756;2024-03-08T07:32:28;20.33;;;11.23;;
68680;SDS011;55836;49.858;6.756;2024-03-08T07:34:59;23.40;;;11.70;;
68680;SDS011;55836;49.858;6.756;2024-03-08T07:37:27;18.70;;;11.70;;
68680;SDS011;55836;49.858;6.756;2024-03-08T07:39:53;19.17;;;11.90;;
68680;SDS011;55836;49.858;6.756;2024-03-08T07:42:19;22.07;;;12.70;;
68680;SDS011;55836;49.858;6.756;2024-03-08T07:44:46;19.27;;;10.63;;
68680;SDS011;55836;49.858;6.756;2024-03-08T07:47:13;22.53;;;11.90;;
68680;SDS011;55836;49.858;6.756;2024-03-08T07:49:39;21.20;;;12.13;;
68680;SDS011;55836;49.858;6.756;2024-03-08T07:52:05;23.93;;;11.77;;
68680;SDS011;55836;49.858;6.756;2024-03-08T07:54:32;22.03;;;11.70;;
68680;SDS011;55836;49.858;6.756;2024-03-08T07:56:59;21.00;;;12.53;;
68680;SDS011;55836;49.858;6.756;2024-03-08T07:59:27;19.93;;;11.43;;
68680;SDS011;55836;49.858;6.756;2024-03-08T08:01:54;21.03;;;12.60;;
68680;SDS011;55836;49.858;6.756;2024-03-08T08:04:20;24.27;;;12.17;;
68680;SDS011;55836;49.858;6.756;2024-03-08T08:06:49;19.47;;;12.13;;
68680;SDS011;55836;49.858;6.756;2024-03-08T08:09:16;22.67;;;11.97;;
68680;SDS011;55836;49.858;6.756;2024-03-08T08:11:53;21.00;;;11.97;;
68680;SDS011;55836;49.858;6.756;2024-03-08T08:14:19;20.37;;;11.77;;
68680;SDS011;55836;49.858;6.756;2024-03-08T08:16:46;23.80;;;11.87;;
68680;SDS011;55836;49.858;6.756;2024-03-08T08:19:13;19.17;;;11.17;;
68680;SDS011;55836;49.858;6.756;2024-03-08T08:21:39;21.83;;;12.30;;
68680;SDS011;55836;49.858;6.756;2024-03-08T08:24:05;20.40;;;11.53;;
68680;SDS011;55836;49.858;6.756;2024-03-08T08:26:31;22.40;;;12.60;;
68680;SDS011;55836;49.858;6.756;2024-03-08T08:28:59;21.47;;;12.37;;
68680;SDS011;55836;49.858;6.756;2024-03-08T08:31:25;19.57;;;12.07;;
68680;SDS011;55836;49.858;6.756;2024-03-08T08:33:51;20.77;;;11.73;;
68680;SDS011;55836;49.858;6.756;2024-03-08T08:36:23;18.70;;;11.97;;
68680;SDS011;55836;49.858;6.756;2024-03-08T08:38:49;21.70;;;11.87;;
68680;SDS011;55836;49.858;6.756;2024-03-08T08:41:15;20.27;;;11.33;;
68680;SDS011;55836;49.858;6.756;2024-03-08T08:43:42;20.13;;;11.40;;
68680;SDS011;55836;49.858;6.756;2024-03-08T08:46:11;19.93;;;11.17;;
68680;SDS011;55836;49.858;6.756;2024-03-08T08:48:38;20.67;;;11.67;;
68680;SDS011;55836;49.858;6.756;2024-03-08T08:51:06;19.77;;;11.77;;
68680;SDS011;55836;49.858;6.756;2024-03-08T08:53:31;21.23;;;11.83;;
68680;SDS011;55836;49.858;6.756;2024-03-08T08:56:00;18.30;;;11.07;;
68680;SDS011;55836;49.858;6.756;2024-03-08T08:58:26;18.23;;;10.70;;
68680;SDS011;55836;49.858;6.756;2024-03-08T09:00:52;21.40;;;12.00;;
68680;SDS011;55836;49.858;6.756;2024-03-08T09:03:18;18.73;;;10.83;;
68680;SDS011;55836;49.858;6.756;2024-03-08T09:05:45;21.80;;;12.23;;
68680;SDS011;55836;49.858;6.756;2024-03-08T09:08:11;23.00;;;13.00;;
68680;SDS011;55836;49.858;6.756;2024-03-08T09:10:37;22.50;;;12.33;;
68680;SDS011;55836;49.858;6.756;2024-03-08T09:13:04;19.27;;;11.57;;
68680;SDS011;55836;49.858;6.756;2024-03-08T09:15:31;23.90;;;11.87;;
68680;SDS011;55836;49.858;6.756;2024-03-08T09:17:57;19.73;;;10.90;;
68680;SDS011;55836;49.858;6.756;2024-03-08T09:20:24;20.70;;;11.83;;
68680;SDS011;55836;49.858;6.756;2024-03-08T09:22:50;19.13;;;11.63;;
68680;SDS011;55836;49.858;6.756;2024-03-08T09:25:16;19.97;;;12.20;;
68680;SDS011;55836;49.858;6.756;2024-03-08T09:27:42;21.37;;;11.13;;
68680;SDS011;55836;49.858;6.756;2024-03-08T09:30:08;19.33;;;10.80;;
68680;SDS011;55836;49.858;6.756;2024-03-08T09:32:34;19.97;;;11.57;;
68680;SDS011;55836;49.858;6.756;2024-03-08T09:35:01;18.13;;;12.43;;
68680;SDS011;55836;49.858;6.756;2024-03-08T09:37:28;18.43;;;10.67;;
68680;SDS011;55836;49.858;6.756;2024-03-08T09:39:54;16.27;;;10.10;;
68680;SDS011;55836;49.858;6.756;2024-03-08T09:42:20;19.50;;;11.50;;
68680;SDS011;55836;49.858;6.756;2024-03-08T09:44:46;17.87;;;10.50;;
68680;SDS011;55836;49.858;6.756;2024-03-08T09:47:13;18.23;;;11.00;;
68680;SDS011;55836;49.858;6.756;2024-03-08T09:49:39;19.47;;;11.67;;
68680;SDS011;55836;49.858;6.756;2024-03-08T09:52:06;17.40;;;10.37;;
68680;SDS011;55836;49.858;6.756;2024-03-08T09:54:33;18.27;;;11.03;;
68680;SDS011;55836;49.858;6.756;2024-03-08T09:56:59;22.53;;;12.50;;
68680;SDS011;55836;49.858;6.756;2024-03-08T09:59:25;18.47;;;10.70;;
68680;SDS011;55836;49.858;6.756;2024-03-08T10:01:51;19.23;;;11.00;;
68680;SDS011;55836;49.858;6.756;2024-03-08T10:04:17;18.30;;;11.03;;
68680;SDS011;55836;49.858;6.756;2024-03-08T10:06:45;20.40;;;11.23;;
68680;SDS011;55836;49.858;6.756;2024-03-08T10:09:14;18.63;;;10.90;;
68680;SDS011;55836;49.858;6.756;2024-03-08T10:11:41;17.37;;;10.83;;
68680;SDS011;55836;49.858;6.756;2024-03-08T10:14:08;22.50;;;12.47;;
68680;SDS011;55836;49.858;6.756;2024-03-08T10:16:34;15.37;;;10.43;;
68680;SDS011;55836;49.858;6.756;2024-03-08T10:19:00;18.43;;;10.80;;
68680;SDS011;55836;49.858;6.756;2024-03-08T10:21:26;17.67;;;10.50;;
68680;SDS011;55836;49.858;6.756;2024-03-08T10:23:53;17.37;;;11.17;;
68680;SDS011;55836;49.858;6.756;2024-03-08T10:26:19;17.97;;;10.67;;
68680;SDS011;55836;49.858;6.756;2024-03-08T10:28:51;17.93;;;10.80;;
68680;SDS011;55836;49.858;6.756;2024-03-08T10:31:19;17.87;;;11.13;;
68680;SDS011;55836;49.858;6.756;2024-03-08T10:33:45;17.70;;;11.33;;
68680;SDS011;55836;49.858;6.756;2024-03-08T10:36:13;18.47;;;11.77;;
68680;SDS011;55836;49.858;6.756;2024-03-08T10:38:39;17.97;;;11.73;;
68680;SDS011;55836;49.858;6.756;2024-03-08T10:41:06;17.77;;;12.07;;
68680;SDS011;55836;49.858;6.756;2024-03-08T10:43:40;17.13;;;10.23;;
68680;SDS011;55836;49.858;6.756;2024-03-08T10:46:16;15.77;;;9.77;;
68680;SDS011;55836;49.858;6.756;2024-03-08T10:48:44;20.53;;;11.70;;
68680;SDS011;55836;49.858;6.756;2024-03-08T10:51:11;17.70;;;11.73;;
68680;SDS011;55836;49.858;6.756;2024-03-08T10:53:37;18.20;;;11.27;;
68680;SDS011;55836;49.858;6.756;2024-03-08T10:56:06;17.87;;;11.47;;
68680;SDS011;55836;49.858;6.756;2024-03-08T10:58:34;18.63;;;12.10;;
68680;SDS011;55836;49.858;6.756;2024-03-08T11:01:01;15.27;;;10.63;;
68680;SDS011;55836;49.858;6.756;2024-03-08T11:06:51;18.00;;;10.53;;
68680;SDS011;55836;49.858;6.756;2024-03-08T11:08:52;18.00;;;11.23;;
68680;SDS011;55836;49.858;6.756;2024-03-08T11:11:29;19.57;;;10.33;;
68680;SDS011;55836;49.858;6.756;2024-03-08T11:13:55;17.87;;;11.23;;
68680;SDS011;55836;49.858;6.756;2024-03-08T11:18:55;18.10;;;10.97;;
68680;SDS011;55836;49.858;6.756;2024-03-08T11:21:29;17.10;;;10.07;;
68680;SDS011;55836;49.858;6.756;2024-03-08T11:23:59;15.73;;;9.67;;
68680;SDS011;55836;49.858;6.756;2024-03-08T11:26:25;13.93;;;9.80;;
68680;SDS011;55836;49.858;6.756;2024-03-08T11:28:51;18.97;;;11.23;;
68680;SDS011;55836;49.858;6.756;2024-03-08T11:33:47;14.77;;;9.87;;
68680;SDS011;55836;49.858;6.756;2024-03-08T11:36:21;15.07;;;10.63;;
68680;SDS011;55836;49.858;6.756;2024-03-08T11:38:47;19.57;;;10.53;;
68680;SDS011;55836;49.858;6.756;2024-03-08T11:41:14;16.67;;;10.00;;
68680;SDS011;55836;49.858;6.756;2024-03-08T11:43:40;17.20;;;10.37;;
68680;SDS011;55836;49.858;6.756;2024-03-08T11:46:12;20.20;;;11.77;;
68680;SDS011;55836;49.858;6.756;2024-03-08T11:48:42;15.90;;;10.27;;
68680;SDS011;55836;49.858;6.756;2024-03-08T11:51:09;17.37;;;10.77;;
68680;SDS011;55836;49.858;6.756;2024-03-08T11:53:36;19.70;;;11.53;;
68680;SDS011;55836;49.858;6.756;2024-03-08T11:56:12;16.83;;;10.70;;
68680;SDS011;55836;49.858;6.756;2024-03-08T11:58:39;19.53;;;12.33;;
68680;SDS011;55836;49.858;6.756;2024-03-08T12:01:05;17.07;;;11.43;;
68680;SDS011;55836;49.858;6.756;2024-03-08T12:03:32;19.23;;;11.30;;
68680;SDS011;55836;49.858;6.756;2024-03-08T12:05:59;18.00;;;11.00;;
68680;SDS011;55836;49.858;6.756;2024-03-08T12:08:25;18.13;;;10.83;;
68680;SDS011;55836;49.858;6.756;2024-03-08T12:10:54;15.77;;;9.90;;
68680;SDS011;55836;49.858;6.756;2024-03-08T12:13:25;18.90;;;11.33;;
68680;SDS011;55836;49.858;6.756;2024-03-08T12:15:54;21.67;;;12.53;;
68680;SDS011;55836;49.858;6.756;2024-03-08T12:18:20;16.37;;;10.70;;
68680;SDS011;55836;49.858;6.756;2024-03-08T12:20:46;20.27;;;11.60;;
68680;SDS011;55836;49.858;6.756;2024-03-08T12:23:14;18.43;;;12.00;;
68680;SDS011;55836;49.858;6.756;2024-03-08T12:25:41;15.93;;;10.03;;
68680;SDS011;55836;49.858;6.756;2024-03-08T12:28:08;16.53;;;11.63;;
68680;SDS011;55836;49.858;6.756;2024-03-08T12:30:46;16.93;;;10.70;;
68680;SDS011;55836;49.858;6.756;2024-03-08T12:33:13;18.57;;;10.57;;
68680;SDS011;55836;49.858;6.756;2024-03-08T12:35:39;17.50;;;10.67;;
68680;SDS011;55836;49.858;6.756;2024-03-08T12:38:05;19.50;;;11.33;;
68680;SDS011;55836;49.858;6.756;2024-03-08T12:40:33;17.13;;;12.00;;
68680;SDS011;55836;49.858;6.756;2024-03-08T12:43:01;19.77;;;11.53;;
68680;SDS011;55836;49.858;6.756;2024-03-08T12:45:27;17.13;;;11.20;;
68680;SDS011;55836;49.858;6.756;2024-03-08T12:47:54;17.30;;;11.30;;
68680;SDS011;55836;49.858;6.756;2024-03-08T12:50:20;18.37;;;11.23;;
68680;SDS011;55836;49.858;6.756;2024-03-08T12:52:46;21.00;;;11.30;;
68680;SDS011;55836;49.858;6.756;2024-03-08T12:55:13;19.40;;;10.37;;
68680;SDS011;55836;49.858;6.756;2024-03-08T12:57:41;19.67;;;11.33;;
68680;SDS011;55836;49.858;6.756;2024-03-08T13:00:07;16.50;;;10.93;;
68680;SDS011;55836;49.858;6.756;2024-03-08T13:02:38;18.70;;;11.27;;
68680;SDS011;55836;49.858;6.756;2024-03-08T13:05:04;14.97;;;10.53;;
68680;SDS011;55836;49.858;6.756;2024-03-08T13:07:30;19.47;;;11.73;;
68680;SDS011;55836;49.858;6.756;2024-03-08T13:09:57;18.60;;;11.23;;
68680;SDS011;55836;49.858;6.756;2024-03-08T13:12:24;15.37;;;10.00;;
68680;SDS011;55836;49.858;6.756;2024-03-08T13:14:50;19.97;;;12.30;;
68680;SDS011;55836;49.858;6.756;2024-03-08T13:17:17;17.57;;;11.33;;
68680;SDS011;55836;49.858;6.756;2024-03-08T13:19:46;20.27;;;11.80;;
68680;SDS011;55836;49.858;6.756;2024-03-08T13:22:12;18.27;;;11.40;;
68680;SDS011;55836;49.858;6.756;2024-03-08T13:24:41;15.20;;;10.63;;
68680;SDS011;55836;49.858;6.756;2024-03-08T13:27:08;15.07;;;10.27;;
68680;SDS011;55836;49.858;6.756;2024-03-08T13:29:47;16.27;;;10.43;;
68680;SDS011;55836;49.858;6.756;2024-03-08T13:32:13;15.97;;;11.07;;
68680;SDS011;55836;49.858;6.756;2024-03-08T13:34:43;15.80;;;10.40;;
68680;SDS011;55836;49.858;6.756;2024-03-08T13:37:10;17.73;;;11.47;;
68680;SDS011;55836;49.858;6.756;2024-03-08T13:39:36;16.63;;;11.00;;
68680;SDS011;55836;49.858;6.756;2024-03-08T13:42:15;15.13;;;10.47;;
68680;SDS011;55836;49.858;6.756;2024-03-08T13:44:45;15.37;;;11.47;;
68680;SDS011;55836;49.858;6.756;2024-03-08T13:47:12;16.73;;;10.13;;
68680;SDS011;55836;49.858;6.756;2024-03-08T13:49:38;16.17;;;10.27;;
68680;SDS011;55836;49.858;6.756;2024-03-08T13:52:05;13.33;;;8.87;;
68680;SDS011;55836;49.858;6.756;2024-03-08T13:54:33;14.17;;;9.63;;
68680;SDS011;55836;49.858;6.756;2024-03-08T13:57:00;13.90;;;9.67;;
68680;SDS011;55836;49.858;6.756;2024-03-08T13:59:28;16.17;;;9.97;;
68680;SDS011;55836;49.858;6.756;2024-03-08T14:01:55;19.10;;;10.43;;
68680;SDS011;55836;49.858;6.756;2024-03-08T14:04:21;15.43;;;9.30;;
68680;SDS011;55836;49.858;6.756;2024-03-08T14:06:47;15.73;;;9.80;;
68680;SDS011;55836;49.858;6.756;2024-03-08T14:09:14;14.30;;;9.33;;
68680;SDS011;55836;49.858;6.756;2024-03-08T14:11:42;16.10;;;10.50;;
68680;SDS011;55836;49.858;6.756;2024-03-08T14:14:11;15.53;;;9.67;;
68680;SDS011;55836;49.858;6.756;2024-03-08T14:16:38;12.23;;;9.30;;
68680;SDS011;55836;49.858;6.756;2024-03-08T14:19:04;15.47;;;9.63;;
68680;SDS011;55836;49.858;6.756;2024-03-08T14:21:33;13.73;;;9.17;;
68680;SDS011;55836;49.858;6.756;2024-03-08T14:23:59;14.07;;;9.10;;
68680;SDS011;55836;49.858;6.756;2024-03-08T14:26:26;15.80;;;9.73;;
68680;SDS011;55836;49.858;6.756;2024-03-08T14:28:52;14.87;;;9.27;;
68680;SDS011;55836;49.858;6.756;2024-03-08T14:31:20;14.13;;;8.80;;